sensor_id;sensor_type;location;lat;lon;timestamp;pressure;altitude;pressure_sealevel;temperature;humidity
26531;BME280;14201;43.188;24.160;2023-05-14T00:01:15;100125.41;;;14.42;80.22
26531;BME280;14201;43.188;24.160;2023-05-14T00:03:41;100126.34;;;14.44;79.22
26531;BME280;14201;43.188;24.160;2023-05-14T00:06:06;100122.09;;;14.48;79.35
26531;BME280;14201;43.188;24.160;2023-05-14T00:08:33;100107.91;;;14.41;79.91
26531;BME280;14201;43.188;24.160;2023-05-14T00:10:58;100119.53;;;14.49;79.10
26531;BME280;14201;43.188;24.160;2023-05-14T00:13:24;100115.34;;;14.54;78.75
26531;BME280;14201;43.188;24.160;2023-05-14T00:15:50;100104.81;;;14.53;79.08
26531;BME280;14201;43.188;24.160;2023-05-14T00:18:15;100103.00;;;14.52;79.67
26531;BME280;14201;43.188;24.160;2023-05-14T00:20:40;100096.06;;;14.52;80.08
26531;BME280;14201;43.188;24.160;2023-05-14T00:23:06;100091.72;;;14.53;79.33
26531;BME280;14201;43.188;24.160;2023-05-14T00:25:31;100093.38;;;14.51;79.57
26531;BME280;14201;43.188;24.160;2023-05-14T00:27:57;100094.19;;;14.48;79.54
26531;BME280;14201;43.188;24.160;2023-05-14T00:30:22;100092.44;;;14.49;79.65
26531;BME280;14201;43.188;24.160;2023-05-14T00:32:47;100087.41;;;14.29;80.44
26531;BME280;14201;43.188;24.160;2023-05-14T00:35:13;100093.69;;;14.09;81.75
26531;BME280;14201;43.188;24.160;2023-05-14T00:37:38;100093.41;;;14.27;82.30
26531;BME280;14201;43.188;24.160;2023-05-14T00:40:04;100080.38;;;14.28;81.71
26531;BME280;14201;43.188;24.160;2023-05-14T00:42:31;100077.63;;;14.24;81.06
26531;BME280;14201;43.188;24.160;2023-05-14T00:44:56;100078.50;;;14.24;81.42
26531;BME280;14201;43.188;24.160;2023-05-14T00:47:21;100081.03;;;14.21;81.66
26531;BME280;14201;43.188;24.160;2023-05-14T00:49:47;100086.28;;;14.23;81.88
26531;BME280;14201;43.188;24.160;2023-05-14T00:52:12;100083.84;;;14.27;81.31
26531;BME280;14201;43.188;24.160;2023-05-14T00:54:38;100082.13;;;14.28;81.73
26531;BME280;14201;43.188;24.160;2023-05-14T00:57:04;100097.78;;;14.26;81.86
26531;BME280;14201;43.188;24.160;2023-05-14T00:59:30;100099.63;;;14.29;81.54
26531;BME280;14201;43.188;24.160;2023-05-14T01:01:55;100096.03;;;14.01;83.25
26531;BME280;14201;43.188;24.160;2023-05-14T01:04:21;100087.97;;;14.21;82.93
26531;BME280;14201;43.188;24.160;2023-05-14T01:09:25;100069.34;;;14.11;82.18
26531;BME280;14201;43.188;24.160;2023-05-14T01:14:36;100062.72;;;13.97;82.61
26531;BME280;14201;43.188;24.160;2023-05-14T01:17:05;100071.50;;;13.99;82.70
26531;BME280;14201;43.188;24.160;2023-05-14T01:19:44;100074.34;;;14.05;83.60
26531;BME280;14201;43.188;24.160;2023-05-14T01:22:11;100072.50;;;14.03;83.47
26531;BME280;14201;43.188;24.160;2023-05-14T01:24:37;100082.59;;;14.16;83.38
26531;BME280;14201;43.188;24.160;2023-05-14T01:27:36;100074.72;;;14.16;83.13
26531;BME280;14201;43.188;24.160;2023-05-14T01:32:34;100080.75;;;14.39;83.10
26531;BME280;14201;43.188;24.160;2023-05-14T01:35:00;100081.38;;;14.32;82.70
26531;BME280;14201;43.188;24.160;2023-05-14T01:37:26;100065.94;;;14.14;82.88
26531;BME280;14201;43.188;24.160;2023-05-14T01:39:54;100073.97;;;13.94;84.12
26531;BME280;14201;43.188;24.160;2023-05-14T01:42:20;100070.97;;;13.84;83.97
26531;BME280;14201;43.188;24.160;2023-05-14T01:44:46;100085.00;;;13.86;84.20
26531;BME280;14201;43.188;24.160;2023-05-14T01:47:11;100075.97;;;13.77;84.30
26531;BME280;14201;43.188;24.160;2023-05-14T01:49:36;100086.38;;;13.76;84.44
26531;BME280;14201;43.188;24.160;2023-05-14T01:52:02;100088.50;;;13.62;85.41
26531;BME280;14201;43.188;24.160;2023-05-14T01:54:27;100078.53;;;13.76;84.77
26531;BME280;14201;43.188;24.160;2023-05-14T01:56:53;100075.97;;;13.77;84.96
26531;BME280;14201;43.188;24.160;2023-05-14T01:59:18;100073.84;;;13.91;84.24
26531;BME280;14201;43.188;24.160;2023-05-14T02:01:43;100074.97;;;13.98;83.71
26531;BME280;14201;43.188;24.160;2023-05-14T02:04:09;100065.53;;;14.03;83.57
26531;BME280;14201;43.188;24.160;2023-05-14T02:06:34;100078.16;;;14.13;81.89
26531;BME280;14201;43.188;24.160;2023-05-14T02:08:59;100076.41;;;14.14;82.34
26531;BME280;14201;43.188;24.160;2023-05-14T02:11:25;100079.53;;;14.04;83.42
26531;BME280;14201;43.188;24.160;2023-05-14T02:13:50;100078.09;;;14.12;83.82
26531;BME280;14201;43.188;24.160;2023-05-14T02:16:16;100067.69;;;14.15;83.73
26531;BME280;14201;43.188;24.160;2023-05-14T02:18:41;100075.94;;;14.26;83.18
26531;BME280;14201;43.188;24.160;2023-05-14T02:21:06;100082.94;;;14.27;82.85
26531;BME280;14201;43.188;24.160;2023-05-14T02:23:32;100083.94;;;14.30;82.73
26531;BME280;14201;43.188;24.160;2023-05-14T02:25:57;100083.78;;;14.26;82.95
26531;BME280;14201;43.188;24.160;2023-05-14T02:28:22;100086.00;;;14.13;83.54
26531;BME280;14201;43.188;24.160;2023-05-14T02:30:48;100085.72;;;14.06;83.14
26531;BME280;14201;43.188;24.160;2023-05-14T02:33:13;100086.41;;;14.26;83.64
26531;BME280;14201;43.188;24.160;2023-05-14T02:35:39;100083.72;;;14.24;83.25
26531;BME280;14201;43.188;24.160;2023-05-14T02:38:04;100089.66;;;14.18;83.28
26531;BME280;14201;43.188;24.160;2023-05-14T02:40:30;100085.00;;;14.10;83.49
26531;BME280;14201;43.188;24.160;2023-05-14T02:42:56;100079.28;;;13.96;84.28
26531;BME280;14201;43.188;24.160;2023-05-14T02:45:21;100089.50;;;13.90;85.06
26531;BME280;14201;43.188;24.160;2023-05-14T02:47:47;100091.69;;;14.02;84.51
26531;BME280;14201;43.188;24.160;2023-05-14T02:50:12;100091.19;;;13.88;85.10
26531;BME280;14201;43.188;24.160;2023-05-14T02:52:37;100096.31;;;13.85;85.58
26531;BME280;14201;43.188;24.160;2023-05-14T02:55:03;100097.47;;;13.93;86.13
26531;BME280;14201;43.188;24.160;2023-05-14T02:57:28;100101.16;;;13.98;85.97
26531;BME280;14201;43.188;24.160;2023-05-14T02:59:54;100105.75;;;14.04;85.29
26531;BME280;14201;43.188;24.160;2023-05-14T03:02:19;100106.91;;;14.12;83.76
26531;BME280;14201;43.188;24.160;2023-05-14T03:04:45;100101.59;;;14.10;83.07
26531;BME280;14201;43.188;24.160;2023-05-14T03:07:10;100105.00;;;14.08;83.03
26531;BME280;14201;43.188;24.160;2023-05-14T03:09:36;100105.22;;;14.14;82.39
26531;BME280;14201;43.188;24.160;2023-05-14T03:12:01;100104.22;;;14.10;82.86
26531;BME280;14201;43.188;24.160;2023-05-14T03:14:27;100106.16;;;14.16;84.02
26531;BME280;14201;43.188;24.160;2023-05-14T03:16:52;100099.47;;;14.24;83.01
26531;BME280;14201;43.188;24.160;2023-05-14T03:19:17;100099.84;;;14.11;84.34
26531;BME280;14201;43.188;24.160;2023-05-14T03:21:43;100096.63;;;14.18;83.78
26531;BME280;14201;43.188;24.160;2023-05-14T03:24:08;100090.44;;;14.16;83.79
26531;BME280;14201;43.188;24.160;2023-05-14T03:26:34;100098.44;;;14.21;83.46
26531;BME280;14201;43.188;24.160;2023-05-14T03:28:59;100102.81;;;14.20;83.56
26531;BME280;14201;43.188;24.160;2023-05-14T03:31:25;100109.25;;;14.30;83.01
26531;BME280;14201;43.188;24.160;2023-05-14T03:33:50;100103.41;;;14.37;82.34
26531;BME280;14201;43.188;24.160;2023-05-14T03:36:16;100101.56;;;14.34;82.44
26531;BME280;14201;43.188;24.160;2023-05-14T03:38:41;100096.00;;;14.25;82.71
26531;BME280;14201;43.188;24.160;2023-05-14T03:41:07;100105.09;;;14.35;82.71
26531;BME280;14201;43.188;24.160;2023-05-14T03:43:32;100108.72;;;14.14;83.74
26531;BME280;14201;43.188;24.160;2023-05-14T03:45:57;100114.56;;;14.07;84.45
26531;BME280;14201;43.188;24.160;2023-05-14T03:48:23;100118.25;;;14.12;84.55
26531;BME280;14201;43.188;24.160;2023-05-14T03:50:48;100120.22;;;14.18;84.33
26531;BME280;14201;43.188;24.160;2023-05-14T03:53:14;100131.09;;;14.29;83.25
26531;BME280;14201;43.188;24.160;2023-05-14T03:55:39;100134.72;;;14.34;83.57
26531;BME280;14201;43.188;24.160;2023-05-14T03:58:04;100131.34;;;14.36;84.46
26531;BME280;14201;43.188;24.160;2023-05-14T04:00:34;100123.50;;;14.36;84.86
26531;BME280;14201;43.188;24.160;2023-05-14T04:03:00;100127.06;;;14.40;84.74
26531;BME280;14201;43.188;24.160;2023-05-14T04:05:26;100122.63;;;14.37;84.77
26531;BME280;14201;43.188;24.160;2023-05-14T04:07:51;100131.38;;;14.38;84.59
26531;BME280;14201;43.188;24.160;2023-05-14T04:10:17;100127.81;;;14.36;84.77
26531;BME280;14201;43.188;24.160;2023-05-14T04:12:42;100124.16;;;14.31;84.77
26531;BME280;14201;43.188;24.160;2023-05-14T04:15:07;100132.72;;;14.27;85.41
26531;BME280;14201;43.188;24.160;2023-05-14T04:17:33;100127.84;;;14.12;85.98
26531;BME280;14201;43.188;24.160;2023-05-14T04:19:58;100120.53;;;14.03;85.29
26531;BME280;14201;43.188;24.160;2023-05-14T04:22:24;100117.25;;;14.09;85.90
26531;BME280;14201;43.188;24.160;2023-05-14T04:24:49;100119.31;;;14.17;85.67
26531;BME280;14201;43.188;24.160;2023-05-14T04:27:19;100107.91;;;14.15;85.40
26531;BME280;14201;43.188;24.160;2023-05-14T04:29:45;100102.94;;;14.23;86.48
26531;BME280;14201;43.188;24.160;2023-05-14T04:32:10;100095.44;;;14.34;86.00
26531;BME280;14201;43.188;24.160;2023-05-14T04:34:36;100096.38;;;14.36;85.99
26531;BME280;14201;43.188;24.160;2023-05-14T04:37:01;100091.13;;;14.36;86.34
26531;BME280;14201;43.188;24.160;2023-05-14T04:39:28;100101.19;;;14.49;85.73
26531;BME280;14201;43.188;24.160;2023-05-14T04:41:53;100113.03;;;14.62;83.83
26531;BME280;14201;43.188;24.160;2023-05-14T04:44:19;100107.31;;;14.50;84.76
26531;BME280;14201;43.188;24.160;2023-05-14T04:46:45;100105.28;;;14.41;84.20
26531;BME280;14201;43.188;24.160;2023-05-14T04:49:10;100115.53;;;14.59;83.65
26531;BME280;14201;43.188;24.160;2023-05-14T04:51:36;100114.78;;;14.63;84.27
26531;BME280;14201;43.188;24.160;2023-05-14T04:54:02;100111.16;;;14.60;81.92
26531;BME280;14201;43.188;24.160;2023-05-14T04:56:27;100110.66;;;14.70;82.84
26531;BME280;14201;43.188;24.160;2023-05-14T04:58:53;100117.25;;;14.84;80.30
26531;BME280;14201;43.188;24.160;2023-05-14T05:01:19;100113.25;;;14.95;80.43
26531;BME280;14201;43.188;24.160;2023-05-14T05:03:46;100119.28;;;14.93;81.49
26531;BME280;14201;43.188;24.160;2023-05-14T05:06:11;100127.19;;;14.94;81.21
26531;BME280;14201;43.188;24.160;2023-05-14T05:08:36;100131.53;;;14.94;80.46
26531;BME280;14201;43.188;24.160;2023-05-14T05:11:02;100129.72;;;14.91;82.04
26531;BME280;14201;43.188;24.160;2023-05-14T05:13:28;100124.22;;;14.84;82.34
26531;BME280;14201;43.188;24.160;2023-05-14T05:15:53;100129.59;;;14.88;82.88
26531;BME280;14201;43.188;24.160;2023-05-14T05:18:18;100129.22;;;14.76;81.19
26531;BME280;14201;43.188;24.160;2023-05-14T05:20:44;100126.72;;;14.81;80.70
26531;BME280;14201;43.188;24.160;2023-05-14T05:23:09;100128.19;;;14.98;79.53
26531;BME280;14201;43.188;24.160;2023-05-14T05:25:35;100131.75;;;15.00;78.43
26531;BME280;14201;43.188;24.160;2023-05-14T05:28:00;100127.19;;;14.94;80.12
26531;BME280;14201;43.188;24.160;2023-05-14T05:30:26;100120.91;;;14.89;80.56
26531;BME280;14201;43.188;24.160;2023-05-14T05:32:51;100132.66;;;15.01;80.54
26531;BME280;14201;43.188;24.160;2023-05-14T05:35:17;100137.41;;;14.85;79.78
26531;BME280;14201;43.188;24.160;2023-05-14T05:37:42;100136.69;;;14.64;80.88
26531;BME280;14201;43.188;24.160;2023-05-14T05:40:09;100128.34;;;14.77;79.97
26531;BME280;14201;43.188;24.160;2023-05-14T05:42:39;100135.53;;;14.81;79.24
26531;BME280;14201;43.188;24.160;2023-05-14T05:45:09;100137.09;;;14.76;78.86
26531;BME280;14201;43.188;24.160;2023-05-14T05:47:38;100141.53;;;15.06;77.91
26531;BME280;14201;43.188;24.160;2023-05-14T05:50:04;100146.09;;;15.11;79.38
26531;BME280;14201;43.188;24.160;2023-05-14T05:52:29;100146.25;;;15.16;79.27
26531;BME280;14201;43.188;24.160;2023-05-14T05:54:55;100149.97;;;15.23;79.04
26531;BME280;14201;43.188;24.160;2023-05-14T05:57:20;100150.91;;;15.25;77.76
26531;BME280;14201;43.188;24.160;2023-05-14T05:59:47;100156.19;;;15.26;77.27
26531;BME280;14201;43.188;24.160;2023-05-14T06:02:13;100165.09;;;15.31;75.63
26531;BME280;14201;43.188;24.160;2023-05-14T06:04:38;100163.47;;;15.35;75.57
26531;BME280;14201;43.188;24.160;2023-05-14T06:07:03;100171.56;;;15.43;74.44
26531;BME280;14201;43.188;24.160;2023-05-14T06:09:29;100178.56;;;15.42;75.77
26531;BME280;14201;43.188;24.160;2023-05-14T06:11:54;100189.25;;;15.48;74.43
26531;BME280;14201;43.188;24.160;2023-05-14T06:14:20;100189.44;;;15.54;73.45
26531;BME280;14201;43.188;24.160;2023-05-14T06:16:45;100191.59;;;15.68;73.13
26531;BME280;14201;43.188;24.160;2023-05-14T06:19:11;100203.09;;;15.71;71.97
26531;BME280;14201;43.188;24.160;2023-05-14T06:21:36;100194.50;;;15.75;73.21
26531;BME280;14201;43.188;24.160;2023-05-14T06:24:02;100195.59;;;15.82;73.30
26531;BME280;14201;43.188;24.160;2023-05-14T06:26:27;100202.59;;;15.83;72.91
26531;BME280;14201;43.188;24.160;2023-05-14T06:28:53;100201.78;;;15.84;74.89
26531;BME280;14201;43.188;24.160;2023-05-14T06:31:18;100198.16;;;15.81;72.49
26531;BME280;14201;43.188;24.160;2023-05-14T06:33:44;100193.84;;;15.83;73.99
26531;BME280;14201;43.188;24.160;2023-05-14T06:36:09;100195.78;;;15.88;73.50
26531;BME280;14201;43.188;24.160;2023-05-14T06:38:34;100194.53;;;16.06;71.48
26531;BME280;14201;43.188;24.160;2023-05-14T06:41:00;100200.50;;;16.00;72.36
26531;BME280;14201;43.188;24.160;2023-05-14T06:43:25;100197.97;;;16.03;72.30
26531;BME280;14201;43.188;24.160;2023-05-14T06:45:51;100186.94;;;16.17;71.87
26531;BME280;14201;43.188;24.160;2023-05-14T06:48:17;100195.69;;;16.16;74.32
26531;BME280;14201;43.188;24.160;2023-05-14T06:50:43;100182.59;;;16.19;74.55
26531;BME280;14201;43.188;24.160;2023-05-14T06:53:08;100188.28;;;16.32;73.04
26531;BME280;14201;43.188;24.160;2023-05-14T06:55:34;100187.47;;;16.35;74.50
26531;BME280;14201;43.188;24.160;2023-05-14T06:58:00;100188.47;;;16.08;76.50
26531;BME280;14201;43.188;24.160;2023-05-14T07:00:25;100190.44;;;16.16;77.26
26531;BME280;14201;43.188;24.160;2023-05-14T07:02:50;100186.94;;;16.17;77.55
26531;BME280;14201;43.188;24.160;2023-05-14T07:05:16;100192.63;;;16.00;78.57
26531;BME280;14201;43.188;24.160;2023-05-14T07:07:41;100187.47;;;16.05;77.60
26531;BME280;14201;43.188;24.160;2023-05-14T07:10:07;100181.44;;;16.07;78.72
26531;BME280;14201;43.188;24.160;2023-05-14T07:12:32;100188.72;;;16.18;77.98
26531;BME280;14201;43.188;24.160;2023-05-14T07:14:58;100187.97;;;16.22;77.40
26531;BME280;14201;43.188;24.160;2023-05-14T07:17:23;100186.38;;;16.27;76.03
26531;BME280;14201;43.188;24.160;2023-05-14T07:19:49;100179.91;;;16.16;77.51
26531;BME280;14201;43.188;24.160;2023-05-14T07:22:15;100187.03;;;16.20;76.17
26531;BME280;14201;43.188;24.160;2023-05-14T07:24:40;100182.03;;;16.29;75.57
26531;BME280;14201;43.188;24.160;2023-05-14T07:27:05;100181.28;;;16.33;74.63
26531;BME280;14201;43.188;24.160;2023-05-14T07:29:32;100186.59;;;16.36;73.08
26531;BME280;14201;43.188;24.160;2023-05-14T07:31:59;100184.16;;;16.42;74.34
26531;BME280;14201;43.188;24.160;2023-05-14T07:34:28;100194.13;;;16.54;72.43
26531;BME280;14201;43.188;24.160;2023-05-14T07:36:53;100195.81;;;16.52;73.43
26531;BME280;14201;43.188;24.160;2023-05-14T07:39:19;100195.81;;;16.52;74.25
26531;BME280;14201;43.188;24.160;2023-05-14T07:41:44;100192.28;;;16.51;75.24
26531;BME280;14201;43.188;24.160;2023-05-14T07:44:10;100200.56;;;16.65;74.39
26531;BME280;14201;43.188;24.160;2023-05-14T07:46:35;100198.81;;;16.66;75.78
26531;BME280;14201;43.188;24.160;2023-05-14T07:49:01;100200.16;;;16.82;74.06
26531;BME280;14201;43.188;24.160;2023-05-14T07:51:26;100206.28;;;16.82;75.07
26531;BME280;14201;43.188;24.160;2023-05-14T07:53:52;100198.31;;;16.79;75.62
26531;BME280;14201;43.188;24.160;2023-05-14T07:56:19;100202.88;;;16.85;74.75
26531;BME280;14201;43.188;24.160;2023-05-14T07:58:45;100210.09;;;16.93;74.21
26531;BME280;14201;43.188;24.160;2023-05-14T08:01:11;100210.91;;;16.91;73.75
26531;BME280;14201;43.188;24.160;2023-05-14T08:03:36;100217.94;;;16.90;74.47
26531;BME280;14201;43.188;24.160;2023-05-14T08:06:02;100224.13;;;16.92;75.09
26531;BME280;14201;43.188;24.160;2023-05-14T08:08:28;100222.31;;;16.91;74.69
26531;BME280;14201;43.188;24.160;2023-05-14T08:10:54;100219.81;;;16.96;73.08
26531;BME280;14201;43.188;24.160;2023-05-14T08:13:19;100222.47;;;16.98;72.15
26531;BME280;14201;43.188;24.160;2023-05-14T08:15:45;100220.72;;;16.97;72.91
26531;BME280;14201;43.188;24.160;2023-05-14T08:18:11;100220.72;;;16.97;73.26
26531;BME280;14201;43.188;24.160;2023-05-14T08:20:36;100219.25;;;17.09;72.07
26531;BME280;14201;43.188;24.160;2023-05-14T08:23:02;100216.13;;;17.24;70.54
26531;BME280;14201;43.188;24.160;2023-05-14T08:25:27;100213.47;;;17.23;69.36
26531;BME280;14201;43.188;24.160;2023-05-14T08:27:52;100220.28;;;17.15;71.05
26531;BME280;14201;43.188;24.160;2023-05-14T08:30:18;100221.94;;;17.11;69.76
26531;BME280;14201;43.188;24.160;2023-05-14T08:32:44;100223.75;;;17.13;69.59
26531;BME280;14201;43.188;24.160;2023-05-14T08:35:09;100220.97;;;17.07;70.68
26531;BME280;14201;43.188;24.160;2023-05-14T08:37:35;100217.25;;;16.99;71.32
26531;BME280;14201;43.188;24.160;2023-05-14T08:40:00;100219.38;;;16.81;71.97
26531;BME280;14201;43.188;24.160;2023-05-14T08:42:26;100220.84;;;16.71;73.03
26531;BME280;14201;43.188;24.160;2023-05-14T08:44:56;100215.00;;;16.48;71.69
26531;BME280;14201;43.188;24.160;2023-05-14T08:47:22;100219.13;;;16.38;72.43
26531;BME280;14201;43.188;24.160;2023-05-14T08:49:50;100215.63;;;16.39;72.93
26531;BME280;14201;43.188;24.160;2023-05-14T08:52:16;100209.47;;;16.39;73.47
26531;BME280;14201;43.188;24.160;2023-05-14T08:54:42;100203.50;;;16.14;73.94
26531;BME280;14201;43.188;24.160;2023-05-14T08:57:08;100211.00;;;16.00;75.68
26531;BME280;14201;43.188;24.160;2023-05-14T08:59:34;100211.22;;;16.08;76.11
26531;BME280;14201;43.188;24.160;2023-05-14T09:02:00;100211.19;;;16.06;76.79
26531;BME280;14201;43.188;24.160;2023-05-14T09:04:26;100207.03;;;16.14;75.64
26531;BME280;14201;43.188;24.160;2023-05-14T09:06:52;100206.50;;;16.26;73.69
26531;BME280;14201;43.188;24.160;2023-05-14T09:09:18;100204.78;;;16.28;74.72
26531;BME280;14201;43.188;24.160;2023-05-14T09:11:46;100198.81;;;16.32;75.50
26531;BME280;14201;43.188;24.160;2023-05-14T09:14:12;100209.59;;;16.43;75.91
26531;BME280;14201;43.188;24.160;2023-05-14T09:16:38;100192.50;;;16.59;73.43
26531;BME280;14201;43.188;24.160;2023-05-14T09:19:05;100187.22;;;16.59;74.21
26531;BME280;14201;43.188;24.160;2023-05-14T09:21:31;100190.53;;;16.50;76.34
26531;BME280;14201;43.188;24.160;2023-05-14T09:23:57;100182.06;;;16.62;75.65
26531;BME280;14201;43.188;24.160;2023-05-14T09:44:05;100157.69;;;17.39;80.54
26531;BME280;14201;43.188;24.160;2023-05-14T09:46:30;100154.56;;;17.57;80.14
26531;BME280;14201;43.188;24.160;2023-05-14T09:48:57;100157.47;;;17.69;78.46
26531;BME280;14201;43.188;24.160;2023-05-14T09:51:22;100160.75;;;17.97;73.55
26531;BME280;14201;43.188;24.160;2023-05-14T09:53:48;100142.59;;;18.13;71.74
26531;BME280;14201;43.188;24.160;2023-05-14T09:56:16;100123.34;;;18.18;71.53
26531;BME280;14201;43.188;24.160;2023-05-14T09:58:41;100125.47;;;18.36;69.53
26531;BME280;14201;43.188;24.160;2023-05-14T10:01:07;100111.66;;;18.04;72.81
26531;BME280;14201;43.188;24.160;2023-05-14T10:03:32;100109.06;;;18.05;74.82
26531;BME280;14201;43.188;24.160;2023-05-14T10:05:59;100095.69;;;17.96;71.87
26531;BME280;14201;43.188;24.160;2023-05-14T10:08:27;100092.22;;;17.97;72.46
26531;BME280;14201;43.188;24.160;2023-05-14T10:10:55;100089.91;;;17.73;74.67
26531;BME280;14201;43.188;24.160;2023-05-14T10:13:23;100083.16;;;17.84;72.46
26531;BME280;14201;43.188;24.160;2023-05-14T10:15:55;100076.31;;;17.94;72.05
26531;BME280;14201;43.188;24.160;2023-05-14T10:18:22;100088.91;;;18.09;74.74
26531;BME280;14201;43.188;24.160;2023-05-14T10:20:47;100097.97;;;18.23;76.35
26531;BME280;14201;43.188;24.160;2023-05-14T10:23:17;100087.63;;;18.36;75.63
26531;BME280;14201;43.188;24.160;2023-05-14T10:25:43;100089.53;;;18.43;73.60
26531;BME280;14201;43.188;24.160;2023-05-14T10:28:08;100078.16;;;18.47;73.93
26531;BME280;14201;43.188;24.160;2023-05-14T10:30:36;100079.94;;;18.48;72.55
26531;BME280;14201;43.188;24.160;2023-05-14T10:33:06;100074.84;;;18.59;72.82
26531;BME280;14201;43.188;24.160;2023-05-14T10:35:39;100065.38;;;18.72;73.40
26531;BME280;14201;43.188;24.160;2023-05-14T10:38:15;100076.69;;;18.64;68.85
26531;BME280;14201;43.188;24.160;2023-05-14T10:40:40;100074.00;;;18.60;70.41
26531;BME280;14201;43.188;24.160;2023-05-14T10:43:06;100070.78;;;18.79;71.15
26531;BME280;14201;43.188;24.160;2023-05-14T10:45:32;100070.16;;;18.93;70.32
26531;BME280;14201;43.188;24.160;2023-05-14T10:47:58;100058.50;;;19.42;71.83
26531;BME280;14201;43.188;24.160;2023-05-14T10:50:24;100059.03;;;19.82;71.15
26531;BME280;14201;43.188;24.160;2023-05-14T10:52:50;100055.00;;;20.15;70.70
26531;BME280;14201;43.188;24.160;2023-05-14T10:55:16;100045.47;;;20.37;66.47
26531;BME280;14201;43.188;24.160;2023-05-14T10:57:44;100044.66;;;20.40;64.80
26531;BME280;14201;43.188;24.160;2023-05-14T11:00:10;100054.41;;;20.49;63.07
26531;BME280;14201;43.188;24.160;2023-05-14T11:02:37;100059.56;;;20.33;63.84
26531;BME280;14201;43.188;24.160;2023-05-14T11:05:04;100055.09;;;20.27;66.89
26531;BME280;14201;43.188;24.160;2023-05-14T11:07:31;100043.69;;;20.33;66.10
26531;BME280;14201;43.188;24.160;2023-05-14T11:10:02;100044.66;;;20.40;63.49
26531;BME280;14201;43.188;24.160;2023-05-14T11:12:27;100035.44;;;19.99;61.57
26531;BME280;14201;43.188;24.160;2023-05-14T11:14:54;100031.53;;;19.66;63.44
26531;BME280;14201;43.188;24.160;2023-05-14T11:17:20;100021.72;;;19.59;63.36
26531;BME280;14201;43.188;24.160;2023-05-14T11:19:46;100018.91;;;19.44;63.74
26531;BME280;14201;43.188;24.160;2023-05-14T11:22:11;100012.38;;;19.17;65.87
26531;BME280;14201;43.188;24.160;2023-05-14T11:24:38;100009.88;;;19.26;63.78
26531;BME280;14201;43.188;24.160;2023-05-14T11:27:06;100018.81;;;19.36;64.10
26531;BME280;14201;43.188;24.160;2023-05-14T11:29:32;100019.72;;;19.38;64.51
26531;BME280;14201;43.188;24.160;2023-05-14T11:31:57;100024.81;;;19.24;65.11
26531;BME280;14201;43.188;24.160;2023-05-14T11:34:23;100020.09;;;19.00;67.38
26531;BME280;14201;43.188;24.160;2023-05-14T11:36:48;100018.50;;;19.12;68.68
26531;BME280;14201;43.188;24.160;2023-05-14T11:39:17;100021.34;;;19.28;67.53
26531;BME280;14201;43.188;24.160;2023-05-14T11:41:46;100022.88;;;19.11;68.29
26531;BME280;14201;43.188;24.160;2023-05-14T11:44:11;100012.19;;;19.00;67.68
26531;BME280;14201;43.188;24.160;2023-05-14T11:46:36;100018.47;;;19.10;69.01
26531;BME280;14201;43.188;24.160;2023-05-14T11:49:05;100012.91;;;18.92;68.28
26531;BME280;14201;43.188;24.160;2023-05-14T11:51:31;100021.38;;;18.69;68.38
26531;BME280;14201;43.188;24.160;2023-05-14T11:53:57;100025.31;;;18.96;66.61
26531;BME280;14201;43.188;24.160;2023-05-14T11:56:25;100020.44;;;19.23;65.70
26531;BME280;14201;43.188;24.160;2023-05-14T11:58:55;100021.53;;;19.44;66.98
26531;BME280;14201;43.188;24.160;2023-05-14T12:01:22;100008.50;;;19.58;67.26
26531;BME280;14201;43.188;24.160;2023-05-14T12:03:48;99997.19;;;19.68;66.61
26531;BME280;14201;43.188;24.160;2023-05-14T12:06:14;99992.03;;;19.79;65.38
26531;BME280;14201;43.188;24.160;2023-05-14T12:08:39;99999.13;;;19.83;65.02
26531;BME280;14201;43.188;24.160;2023-05-14T12:11:05;99993.13;;;19.99;64.11
26531;BME280;14201;43.188;24.160;2023-05-14T12:13:31;99980.78;;;19.97;66.14
26531;BME280;14201;43.188;24.160;2023-05-14T12:15:59;99980.72;;;19.94;64.71
26531;BME280;14201;43.188;24.160;2023-05-14T12:18:26;99962.44;;;20.17;67.32
26531;BME280;14201;43.188;24.160;2023-05-14T12:20:52;99955.53;;;20.37;65.26
26531;BME280;14201;43.188;24.160;2023-05-14T12:23:28;99942.50;;;20.62;61.98
26531;BME280;14201;43.188;24.160;2023-05-14T12:25:55;99931.88;;;20.59;61.66
26531;BME280;14201;43.188;24.160;2023-05-14T12:28:25;99934.50;;;20.57;63.09
26531;BME280;14201;43.188;24.160;2023-05-14T12:30:55;99938.97;;;20.60;64.02
26531;BME280;14201;43.188;24.160;2023-05-14T12:33:21;99950.25;;;20.39;65.02
26531;BME280;14201;43.188;24.160;2023-05-14T12:35:48;99944.91;;;20.31;64.99
26531;BME280;14201;43.188;24.160;2023-05-14T12:38:13;99944.06;;;20.38;64.02
26531;BME280;14201;43.188;24.160;2023-05-14T12:40:39;99946.66;;;20.26;65.27
26531;BME280;14201;43.188;24.160;2023-05-14T12:43:04;99941.31;;;20.23;64.27
26531;BME280;14201;43.188;24.160;2023-05-14T12:45:30;99938.72;;;20.26;64.94
26531;BME280;14201;43.188;24.160;2023-05-14T12:47:56;99932.56;;;20.32;65.03
26531;BME280;14201;43.188;24.160;2023-05-14T12:50:22;99932.59;;;20.39;64.18
26531;BME280;14201;43.188;24.160;2023-05-14T12:52:47;99922.88;;;20.35;64.71
26531;BME280;14201;43.188;24.160;2023-05-14T12:55:13;99911.44;;;20.39;63.35
26531;BME280;14201;43.188;24.160;2023-05-14T12:57:38;99914.97;;;20.38;63.62
26531;BME280;14201;43.188;24.160;2023-05-14T13:00:04;99906.13;;;20.39;64.83